Roth, North Dakota
Current Conditions -  °F | °C
As of 1:58 PM on Sunday 25 Jan 2015 (Local Time) from KMIB Reporting Station
Few Clouds Few Clouds  
Wind Chill: -6°   Ceiling: Unl
Heat Index: -1°   Visibility: 9mi
Dew Point: -1°   Wind: 8mph
Humidity: 100%   Direction: 170°S
Pressure: 29.9"   Gusts: NA
Location:  48.9505°N, 100.734°W
Report Text: KMIB 251958Z AUTO 17007KT 9SM FEW014 M01/M01 A2990 RMK AO2 SLP153 T10141014 $
Loading
Personal Weather Stations






























Interactive Weather Map New forecast layout! Learn more

10-Day Weather Forecast

Advertisements
Track Severe Weather on mobile